Time;durP1;ratioP1;P1;durP2;ratioP2;P2;SDS_P1;SDS_P2;PMS_P1;PMS_P2;Temp;Humidity;BMP_temperature;BMP_pressure;BME280_temperature;BME280_humidity;BME280_pressure;Samples;Min_cycle;Max_cycle;Signal;HPM_P1;HPM_P2
2023/12/30 00:00:35;;;;;;;0.60;0.45;;;17.20;61.20;;;;;;6115763;23;20158;-82
2023/12/30 00:03:03;;;;;;;0.88;0.45;;;17.20;61.50;;;;;;6189862;23;20141;-85
2023/12/30 00:05:30;;;;;;;0.80;0.60;;;17.10;61.40;;;;;;6090829;23;20157;-82
2023/12/30 00:07:57;;;;;;;0.70;0.60;;;17.20;61.50;;;;;;6114741;23;20154;-83
2023/12/30 00:10:25;;;;;;;1.80;0.63;;;17.10;61.20;;;;;;6091570;23;20158;-82
2023/12/30 00:12:52;;;;;;;0.50;0.50;;;17.10;62.30;;;;;;6116077;23;20154;-82
2023/12/30 00:15:19;;;;;;;0.77;0.50;;;17.10;61.60;;;;;;6139676;23;20150;-82
2023/12/30 00:17:50;;;;;;;0.60;0.40;;;17.10;61.90;;;;;;6164627;23;20216;-82
2023/12/30 00:20:22;;;;;;;0.68;0.47;;;17.10;61.90;;;;;;6091439;23;20158;-82
2023/12/30 00:22:48;;;;;;;0.80;0.60;;;17.10;61.50;;;;;;6115055;23;20157;-82
2023/12/30 00:25:17;;;;;;;0.52;0.50;;;17.10;61.60;;;;;;6140596;23;20162;-82
2023/12/30 00:27:49;;;;;;;0.85;0.47;;;17.10;61.60;;;;;;6138190;23;20157;-83
2023/12/30 00:30:17;;;;;;;0.45;0.45;;;17.10;61.60;;;;;;6092386;23;20150;-82
2023/12/30 00:32:45;;;;;;;0.57;0.40;;;17.10;61.50;;;;;;6091236;23;20484;-83
2023/12/30 00:35:14;;;;;;;0.65;0.60;;;17.00;61.50;;;;;;6140283;23;20150;-82
2023/12/30 00:37:39;;;;;;;0.88;0.60;;;17.10;61.40;;;;;;6089204;23;20178;-81
2023/12/30 00:40:06;;;;;;;0.40;0.40;;;17.10;61.70;;;;;;6148595;23;20222;-84
2023/12/30 00:42:31;;;;;;;0.47;0.43;;;17.10;61.30;;;;;;6153679;23;20650;-84
2023/12/30 00:44:59;;;;;;;1.02;0.60;;;17.10;61.80;;;;;;6129557;23;20155;-83
2023/12/30 00:47:26;;;;;;;0.93;0.60;;;17.10;61.50;;;;;;6129905;23;20156;-83
2023/12/30 00:49:54;;;;;;;0.88;0.70;;;17.10;61.60;;;;;;6105702;23;20213;-84
2023/12/30 00:52:22;;;;;;;0.65;0.47;;;17.00;61.80;;;;;;6105979;23;20226;-83
2023/12/30 00:54:49;;;;;;;0.57;0.57;;;17.10;61.80;;;;;;6105860;23;20275;-84
2023/12/30 00:57:17;;;;;;;1.02;0.55;;;17.00;61.90;;;;;;6105920;23;20155;-84
2023/12/30 00:59:45;;;;;;;2.00;0.50;;;17.00;61.60;;;;;;6130287;23;20191;-84
2023/12/30 01:02:10;;;;;;;0.75;0.60;;;17.10;61.70;;;;;;6087728;23;20190;-83
2023/12/30 01:04:38;;;;;;;0.60;0.40;;;17.10;61.50;;;;;;6141561;23;20150;-83
2023/12/30 01:07:05;;;;;;;0.73;0.50;;;17.10;61.90;;;;;;6089865;23;20612;-84
2023/12/30 01:09:33;;;;;;;0.50;0.50;;;17.00;61.60;;;;;;6139599;23;20161;-84
2023/12/30 01:11:58;;;;;;;0.85;0.60;;;17.10;61.90;;;;;;6098355;23;20211;-84
2023/12/30 01:14:46;;;;;;;0.60;0.50;;;17.00;61.70;;;;;;6179904;23;20212;-83
2023/12/30 01:17:15;;;;;;;0.50;0.50;;;17.10;61.50;;;;;;6157861;23;20166;-84
2023/12/30 01:19:42;;;;;;;0.63;0.50;;;17.10;61.80;;;;;;6084854;23;20193;-84
2023/12/30 01:22:11;;;;;;;0.50;0.43;;;17.00;62.00;;;;;;6175895;23;20226;-85
2023/12/30 01:24:37;;;;;;;0.40;0.40;;;17.00;61.70;;;;;;6130049;23;20140;-84
2023/12/30 01:27:05;;;;;;;0.60;0.50;;;17.00;61.70;;;;;;6080450;23;20535;-84
2023/12/30 01:29:32;;;;;;;0.70;0.47;;;17.00;61.80;;;;;;6129055;23;20160;-84
2023/12/30 01:31:58;;;;;;;0.57;0.35;;;17.00;61.90;;;;;;6104974;23;20238;-84
2023/12/30 01:34:25;;;;;;;0.55;0.55;;;17.00;61.60;;;;;;6130176;23;20151;-84
2023/12/30 01:36:54;;;;;;;0.57;0.57;;;17.00;62.00;;;;;;6129878;23;20294;-83
2023/12/30 01:39:21;;;;;;;1.85;0.60;;;17.00;61.70;;;;;;6153972;23;20206;-81
2023/12/30 01:41:49;;;;;;;0.95;0.52;;;17.10;61.60;;;;;;6086307;23;20579;-84
2023/12/30 01:44:16;;;;;;;0.50;0.50;;;17.00;61.60;;;;;;6160313;23;20147;-82
2023/12/30 01:46:42;;;;;;;0.50;0.50;;;17.00;61.30;;;;;;6186459;23;20202;-82
2023/12/30 01:49:08;;;;;;;0.40;0.40;;;17.00;61.60;;;;;;6160466;23;20205;-82
2023/12/30 01:51:34;;;;;;;0.55;0.50;;;17.00;61.70;;;;;;6184191;23;20142;-83
2023/12/30 01:54:00;;;;;;;0.40;0.30;;;17.00;61.60;;;;;;6135326;23;20150;-82
2023/12/30 01:56:26;;;;;;;1.02;0.40;;;17.00;61.60;;;;;;6159813;23;20236;-82
2023/12/30 01:58:52;;;;;;;0.40;0.40;;;17.00;61.90;;;;;;6184927;23;20175;-81
2023/12/30 02:01:20;;;;;;;0.50;0.50;;;17.00;61.70;;;;;;6160207;23;20229;-82
2023/12/30 02:03:46;;;;;;;0.57;0.50;;;17.00;62.10;;;;;;6158550;23;20143;-83
2023/12/30 02:06:12;;;;;;;0.50;0.50;;;17.00;61.70;;;;;;6184609;23;20205;-83
2023/12/30 02:08:37;;;;;;;0.40;0.40;;;17.00;61.70;;;;;;6185355;23;20481;-84
2023/12/30 02:11:03;;;;;;;1.10;0.50;;;17.00;61.70;;;;;;6186173;23;20181;-82
2023/12/30 02:13:30;;;;;;;0.60;0.43;;;17.00;61.80;;;;;;6184847;23;20136;-82
2023/12/30 02:15:55;;;;;;;0.47;0.40;;;17.00;61.70;;;;;;6184172;23;20139;-82
2023/12/30 02:18:21;;;;;;;0.80;0.52;;;17.00;61.60;;;;;;6183508;23;20163;-82
2023/12/30 02:20:49;;;;;;;0.50;0.47;;;17.00;61.80;;;;;;6183721;23;20139;-82
2023/12/30 02:23:16;;;;;;;0.63;0.50;;;17.00;61.80;;;;;;6109109;23;20151;-82
2023/12/30 02:25:44;;;;;;;0.30;0.30;;;16.90;61.90;;;;;;6109753;23;20155;-83
2023/12/30 02:28:11;;;;;;;0.73;0.40;;;16.90;61.80;;;;;;6134758;23;20159;-82
2023/12/30 02:30:39;;;;;;;0.80;0.55;;;17.00;61.80;;;;;;6109979;23;20162;-82
2023/12/30 02:33:05;;;;;;;0.73;0.60;;;17.00;62.00;;;;;;6108205;23;20158;-83
2023/12/30 02:35:32;;;;;;;1.00;0.55;;;17.00;61.80;;;;;;6157952;23;20137;-82
2023/12/30 02:37:58;;;;;;;0.65;0.50;;;16.90;61.80;;;;;;6134493;23;20257;-83
2023/12/30 02:40:26;;;;;;;0.30;0.30;;;16.90;62.00;;;;;;6157401;23;20557;-83
2023/12/30 02:42:54;;;;;;;0.45;0.40;;;17.00;62.00;;;;;;6107986;23;20155;-82
2023/12/30 02:45:22;;;;;;;0.68;0.40;;;16.90;62.10;;;;;;6108812;23;20157;-81
2023/12/30 02:47:50;;;;;;;0.68;0.47;;;16.90;62.10;;;;;;6109406;23;20178;-82
2023/12/30 02:50:16;;;;;;;0.70;0.50;;;16.90;62.00;;;;;;6132806;23;20154;-81
2023/12/30 02:52:51;;;;;;;0.77;0.50;;;16.90;61.80;;;;;;6107353;23;20201;-82
2023/12/30 02:55:25;;;;;;;0.45;0.40;;;16.90;61.80;;;;;;6134250;23;20653;-83
2023/12/30 02:58:03;;;;;;;0.50;0.40;;;16.80;61.80;;;;;;6085143;23;20150;-82
2023/12/30 03:00:38;;;;;;;0.40;0.40;;;16.90;62.10;;;;;;6086517;23;20154;-82
2023/12/30 03:03:12;;;;;;;0.68;0.50;;;16.90;61.90;;;;;;6110381;23;20203;-82
2023/12/30 03:05:46;;;;;;;0.57;0.47;;;16.90;62.00;;;;;;6085489;23;20150;-81
2023/12/30 03:08:20;;;;;;;0.38;0.38;;;16.90;61.80;;;;;;6109545;23;20294;-82
2023/12/30 03:10:54;;;;;;;0.93;0.50;;;16.90;62.00;;;;;;6093363;23;20280;-82
2023/12/30 03:13:28;;;;;;;0.60;0.50;;;16.90;62.10;;;;;;6114992;23;20178;-83
2023/12/30 03:16:02;;;;;;;0.63;0.63;;;16.90;61.40;;;;;;6139221;23;20673;-82
2023/12/30 03:18:28;;;;;;;0.57;0.40;;;17.00;61.90;;;;;;6091019;23;20197;-82
2023/12/30 03:21:01;;;;;;;0.70;0.50;;;16.90;61.70;;;;;;6164441;23;20196;-83
2023/12/30 03:23:34;;;;;;;0.40;0.40;;;16.90;62.00;;;;;;6115450;23;20197;-83
2023/12/30 03:26:08;;;;;;;0.50;0.50;;;16.90;62.00;;;;;;6139750;23;20149;-83
2023/12/30 03:28:40;;;;;;;0.40;0.40;;;16.90;62.10;;;;;;6115142;23;20204;-83
2023/12/30 03:31:24;;;;;;;0.82;0.55;;;16.90;62.00;;;;;;6139178;23;20236;-82
2023/12/30 03:34:03;;;;;;;0.50;0.40;;;16.90;61.90;;;;;;6102052;23;20525;-82
2023/12/30 03:39:04;;;;;;;0.80;0.38;;;16.90;61.80;;;;;;6187772;23;20253;-82
2023/12/30 03:41:36;;;;;;;0.52;0.45;;;16.90;61.60;;;;;;6160712;23;20155;-84
2023/12/30 03:44:08;;;;;;;0.52;0.50;;;16.90;62.10;;;;;;6160506;23;20150;-83
2023/12/30 03:46:34;;;;;;;1.27;0.50;;;16.90;62.10;;;;;;6168726;23;20603;-82
2023/12/30 03:49:04;;;;;;;0.50;0.43;;;16.80;62.20;;;;;;6141519;23;20146;-82
2023/12/30 03:51:35;;;;;;;0.57;0.57;;;16.90;62.10;;;;;;6116467;23;20249;-82
2023/12/30 03:54:01;;;;;;;0.60;0.50;;;16.90;62.10;;;;;;6113127;23;20221;-82
2023/12/30 03:56:32;;;;;;;0.45;0.40;;;16.90;62.00;;;;;;6185811;23;20146;-82
2023/12/30 03:59:02;;;;;;;0.52;0.50;;;16.90;62.10;;;;;;6111783;23;20182;-83
2023/12/30 04:01:32;;;;;;;0.32;0.30;;;16.90;62.00;;;;;;6136126;23;20231;-83
2023/12/30 04:04:01;;;;;;;0.50;0.50;;;16.90;62.00;;;;;;6111043;23;20158;-83
2023/12/30 04:06:31;;;;;;;0.52;0.45;;;16.80;62.00;;;;;;6135910;23;20155;-83
2023/12/30 04:09:00;;;;;;;0.30;0.30;;;16.80;62.00;;;;;;6111675;23;20158;-83
2023/12/30 04:11:29;;;;;;;1.02;0.30;;;16.90;61.80;;;;;;6135328;23;20166;-82
2023/12/30 04:16:23;;;;;;;0.40;0.40;;;16.90;62.10;;;;;;6216646;23;20653;-82
2023/12/30 04:18:52;;;;;;;0.30;0.30;;;16.90;62.00;;;;;;6116024;23;20186;-83
2023/12/30 04:21:21;;;;;;;0.60;0.50;;;16.90;62.20;;;;;;6116062;23;20154;-83
2023/12/30 04:23:50;;;;;;;0.65;0.50;;;16.80;62.00;;;;;;6165189;23;20188;-82
2023/12/30 04:26:18;;;;;;;0.57;0.50;;;16.80;62.10;;;;;;6115884;23;20185;-83
2023/12/30 04:28:46;;;;;;;1.23;0.60;;;16.90;62.10;;;;;;6113957;23;20158;-82
2023/12/30 04:31:14;;;;;;;0.50;0.45;;;16.80;61.90;;;;;;6140097;23;20208;-82
2023/12/30 04:33:39;;;;;;;0.40;0.40;;;16.90;62.00;;;;;;6138182;23;20150;-82
2023/12/30 04:36:08;;;;;;;0.40;0.40;;;16.80;61.80;;;;;;6188307;23;20157;-84
2023/12/30 04:38:36;;;;;;;0.45;0.45;;;16.90;61.90;;;;;;6091805;23;20190;-83
2023/12/30 04:41:04;;;;;;;1.15;0.60;;;16.80;62.20;;;;;;6115898;23;20570;-83
2023/12/30 04:43:30;;;;;;;0.60;0.50;;;16.80;62.10;;;;;;6114939;23;20586;-83
2023/12/30 04:46:01;;;;;;;0.40;0.40;;;16.90;61.90;;;;;;6163602;23;20140;-83
2023/12/30 04:48:32;;;;;;;0.47;0.40;;;16.90;62.30;;;;;;6115665;23;20509;-83
2023/12/30 04:50:58;;;;;;;0.52;0.40;;;16.90;61.70;;;;;;6139754;23;20146;-82
2023/12/30 04:53:26;;;;;;;0.47;0.32;;;16.90;61.80;;;;;;6165660;23;20169;-82
2023/12/30 04:55:51;;;;;;;0.60;0.40;;;16.90;62.00;;;;;;6115230;23;20232;-82
2023/12/30 04:58:19;;;;;;;0.55;0.50;;;16.80;61.80;;;;;;6190230;23;20251;-82
2023/12/30 05:00:47;;;;;;;0.82;0.60;;;16.80;61.70;;;;;;6091356;23;20150;-81
2023/12/30 05:03:15;;;;;;;0.50;0.43;;;16.90;62.00;;;;;;6091593;23;20157;-83
2023/12/30 05:05:42;;;;;;;0.57;0.57;;;16.90;62.00;;;;;;6139953;23;20217;-82
2023/12/30 05:08:10;;;;;;;0.38;0.38;;;16.90;61.80;;;;;;6115890;23;20162;-82
2023/12/30 05:10:37;;;;;;;0.50;0.40;;;16.90;62.10;;;;;;6116031;23;20150;-82
2023/12/30 05:13:05;;;;;;;0.80;0.50;;;16.80;61.70;;;;;;6115423;23;20186;-83
2023/12/30 05:15:33;;;;;;;0.47;0.43;;;16.90;61.80;;;;;;6139337;23;20224;-83
2023/12/30 05:17:59;;;;;;;0.47;0.40;;;16.90;61.80;;;;;;6114793;23;20252;-82
2023/12/30 05:20:26;;;;;;;0.50;0.40;;;16.90;61.90;;;;;;6216621;23;20493;-83
2023/12/30 05:22:53;;;;;;;0.93;0.40;;;16.90;61.70;;;;;;6115762;23;20204;-83
2023/12/30 05:25:20;;;;;;;0.50;0.50;;;16.90;61.80;;;;;;6140110;23;20149;-83
2023/12/30 05:27:47;;;;;;;0.50;0.50;;;16.90;62.00;;;;;;6115676;23;20173;-83
2023/12/30 05:30:15;;;;;;;0.57;0.40;;;16.80;61.60;;;;;;6088497;23;20150;-83
2023/12/30 05:32:43;;;;;;;0.52;0.50;;;16.80;62.10;;;;;;6138484;23;20177;-83
2023/12/30 05:35:11;;;;;;;0.88;0.40;;;16.80;62.00;;;;;;6138602;23;20207;-83
2023/12/30 05:37:38;;;;;;;0.55;0.43;;;16.90;62.10;;;;;;6114346;23;20485;-82
2023/12/30 05:40:08;;;;;;;0.40;0.40;;;16.80;61.60;;;;;;6141039;23;20162;-82
2023/12/30 05:42:35;;;;;;;0.60;0.50;;;16.90;62.00;;;;;;6141978;23;20228;-82
2023/12/30 05:45:03;;;;;;;0.77;0.45;;;16.80;61.90;;;;;;6092699;23;20154;-81
2023/12/30 05:47:31;;;;;;;0.70;0.57;;;16.80;62.00;;;;;;6117007;23;20180;-81
2023/12/30 05:49:58;;;;;;;0.50;0.50;;;16.80;61.80;;;;;;6141910;23;20158;-82
2023/12/30 05:52:25;;;;;;;0.80;0.50;;;16.80;62.00;;;;;;6117492;23;20480;-82
2023/12/30 05:54:53;;;;;;;0.50;0.40;;;16.90;61.80;;;;;;6091882;23;20161;-84
2023/12/30 05:57:20;;;;;;;0.30;0.30;;;16.80;62.00;;;;;;6139288;23;20216;-83
2023/12/30 05:59:45;;;;;;;0.40;0.40;;;16.80;62.00;;;;;;6089792;23;20698;-81
2023/12/30 06:02:14;;;;;;;1.02;0.50;;;16.80;61.70;;;;;;6139092;23;20142;-83
2023/12/30 06:04:43;;;;;;;0.50;0.50;;;16.90;62.00;;;;;;6091144;23;20161;-83
2023/12/30 06:07:13;;;;;;;0.52;0.52;;;16.80;62.00;;;;;;6115627;23;20154;-82
2023/12/30 06:09:42;;;;;;;0.50;0.50;;;16.80;62.10;;;;;;6139869;23;20153;-83
2023/12/30 06:12:11;;;;;;;0.77;0.60;;;16.80;61.70;;;;;;6091337;23;20150;-83
2023/12/30 06:14:37;;;;;;;0.82;0.63;;;16.80;61.70;;;;;;6114737;23;20197;-83
2023/12/30 06:17:07;;;;;;;0.45;0.45;;;16.90;62.10;;;;;;6140744;23;20205;-83
2023/12/30 06:19:36;;;;;;;0.65;0.50;;;16.80;62.10;;;;;;6139732;23;20276;-83
2023/12/30 06:22:06;;;;;;;0.82;0.40;;;16.90;62.00;;;;;;6114960;23;20517;-82
2023/12/30 06:24:36;;;;;;;0.50;0.40;;;16.70;62.90;;;;;;6116088;23;20180;-83
2023/12/30 06:27:04;;;;;;;0.68;0.50;;;16.80;61.90;;;;;;6114887;23;20150;-82
2023/12/30 06:29:33;;;;;;;1.25;0.60;;;16.80;62.00;;;;;;6139526;23;20161;-82
2023/12/30 06:32:03;;;;;;;0.60;0.50;;;16.80;62.10;;;;;;6139402;23;20146;-81
2023/12/30 06:34:32;;;;;;;0.50;0.43;;;16.80;61.90;;;;;;6115563;23;20157;-81
2023/12/30 06:37:01;;;;;;;0.50;0.40;;;16.80;62.10;;;;;;6139838;23;20190;-83
2023/12/30 06:41:59;;;;;;;1.25;0.50;;;16.80;62.00;;;;;;6215953;23;20286;-82
2023/12/30 06:44:27;;;;;;;0.50;0.50;;;16.80;62.10;;;;;;6117418;23;20241;-81
2023/12/30 06:46:56;;;;;;;0.77;0.50;;;16.80;62.00;;;;;;6163973;23;20655;-82
2023/12/30 06:51:52;;;;;;;0.45;0.40;;;16.80;62.10;;;;;;6214971;23;20202;-83
2023/12/30 06:54:21;;;;;;;0.45;0.43;;;16.80;61.80;;;;;;6090629;23;20149;-83
2023/12/30 06:56:53;;;;;;;0.47;0.40;;;16.80;62.10;;;;;;6137157;23;20237;-84
2023/12/30 06:59:19;;;;;;;0.45;0.40;;;16.80;62.10;;;;;;6172882;23;20563;-85
2023/12/30 07:01:48;;;;;;;0.40;0.40;;;16.80;62.00;;;;;;6158378;23;20127;-84
2023/12/30 07:04:18;;;;;;;0.50;0.50;;;16.80;62.20;;;;;;6084624;23;20669;-84
2023/12/30 07:06:47;;;;;;;0.40;0.40;;;16.70;62.10;;;;;;6085560;23;20151;-84
2023/12/30 07:09:16;;;;;;;0.40;0.40;;;16.80;61.80;;;;;;6085564;23;20155;-82
2023/12/30 07:11:45;;;;;;;0.50;0.50;;;16.80;61.80;;;;;;6110165;23;20150;-83
2023/12/30 07:14:14;;;;;;;0.82;0.60;;;16.70;62.00;;;;;;6115471;23;20150;-84
2023/12/30 07:16:47;;;;;;;0.43;0.40;;;16.80;61.80;;;;;;6114138;23;20154;-81
2023/12/30 07:19:16;;;;;;;0.70;0.57;;;16.80;61.60;;;;;;6122084;23;20190;-84
2023/12/30 07:21:45;;;;;;;0.55;0.45;;;16.80;61.80;;;;;;6144747;23;20186;-83
2023/12/30 07:24:11;;;;;;;0.30;0.30;;;16.80;61.80;;;;;;6121123;23;20201;-84
2023/12/30 07:26:39;;;;;;;0.50;0.50;;;16.70;61.80;;;;;;6164963;23;20130;-85
2023/12/30 07:29:08;;;;;;;0.40;0.40;;;16.90;61.80;;;;;;6091686;23;20146;-84
2023/12/30 07:31:36;;;;;;;0.60;0.38;;;16.90;61.70;;;;;;6115672;23;20245;-84
2023/12/30 07:34:05;;;;;;;0.85;0.50;;;16.80;61.80;;;;;;6091026;23;20150;-84
2023/12/30 07:36:33;;;;;;;0.47;0.47;;;16.80;61.60;;;;;;6112809;23;20625;-85
2023/12/30 07:38:59;;;;;;;1.30;0.80;;;16.80;62.20;;;;;;6139136;23;20212;-84
2023/12/30 07:41:27;;;;;;;0.47;0.43;;;16.80;61.80;;;;;;6165044;23;20563;-85
2023/12/30 07:43:55;;;;;;;1.00;0.52;;;16.70;61.90;;;;;;6090878;23;20161;-84
2023/12/30 07:46:25;;;;;;;0.52;0.50;;;16.80;62.10;;;;;;6116126;23;20158;-84
2023/12/30 07:48:53;;;;;;;0.82;0.47;;;16.80;61.60;;;;;;6141209;23;20158;-84
2023/12/30 07:51:21;;;;;;;0.50;0.50;;;16.80;61.70;;;;;;6091336;23;20565;-82
2023/12/30 07:53:51;;;;;;;0.60;0.50;;;16.80;61.80;;;;;;6115574;23;20450;-82
2023/12/30 07:56:19;;;;;;;0.82;0.57;;;16.80;61.80;;;;;;6121972;23;20154;-82
2023/12/30 07:58:47;;;;;;;0.60;0.60;;;16.80;61.70;;;;;;6139575;23;20612;-84
2023/12/30 08:01:14;;;;;;;1.35;0.50;;;16.80;61.60;;;;;;6090986;23;20561;-82
2023/12/30 08:03:42;;;;;;;0.40;0.40;;;16.80;61.70;;;;;;6114883;23;20154;-83
2023/12/30 08:06:10;;;;;;;0.93;0.63;;;16.80;61.60;;;;;;6090613;23;20524;-82
2023/12/30 08:08:36;;;;;;;0.40;0.32;;;16.90;61.40;;;;;;6092121;23;20161;-83
2023/12/30 08:11:03;;;;;;;1.58;0.50;;;16.90;61.70;;;;;;6166800;23;20573;-82
2023/12/30 08:13:31;;;;;;;0.50;0.50;;;16.90;62.10;;;;;;6092999;23;20154;-83
2023/12/30 08:15:58;;;;;;;0.80;0.40;;;17.00;61.20;;;;;;6118064;23;20154;-82
2023/12/30 08:18:25;;;;;;;0.70;0.50;;;17.00;60.70;;;;;;6141602;23;20217;-82
2023/12/30 08:20:52;;;;;;;0.57;0.40;;;17.00;60.90;;;;;;6118924;23;20235;-83
2023/12/30 08:23:22;;;;;;;0.47;0.47;;;17.00;61.10;;;;;;6168061;23;20130;-82
2023/12/30 08:25:52;;;;;;;0.95;0.80;;;17.00;60.80;;;;;;6117629;23;20208;-82
2023/12/30 08:28:18;;;;;;;0.90;0.60;;;17.10;60.90;;;;;;6140899;23;20237;-83
2023/12/30 08:30:43;;;;;;;0.70;0.70;;;17.00;60.90;;;;;;6217930;23;20168;-83
2023/12/30 08:33:09;;;;;;;0.77;0.70;;;17.10;60.70;;;;;;6167359;23;20146;-83
2023/12/30 08:35:37;;;;;;;0.50;0.50;;;17.10;61.00;;;;;;6191551;23;20137;-82
2023/12/30 08:38:05;;;;;;;0.68;0.55;;;17.10;61.00;;;;;;6118656;23;20182;-82
2023/12/30 08:40:30;;;;;;;1.58;0.60;;;17.00;60.80;;;;;;6143831;23;20563;-83
2023/12/30 08:42:57;;;;;;;0.80;0.60;;;17.10;60.90;;;;;;6193236;23;20131;-82
2023/12/30 08:45:24;;;;;;;0.85;0.63;;;17.10;60.80;;;;;;6221425;23;20586;-84
2023/12/30 08:47:50;;;;;;;0.57;0.50;;;17.10;60.40;;;;;;6194352;23;20166;-81
2023/12/30 08:50:18;;;;;;;0.50;0.50;;;17.10;60.80;;;;;;6145750;23;20153;-83
2023/12/30 08:52:46;;;;;;;0.50;0.50;;;17.00;60.70;;;;;;6144916;23;20154;-83
2023/12/30 08:55:14;;;;;;;1.00;0.73;;;17.10;60.70;;;;;;6145895;23;20184;-82
2023/12/30 08:57:39;;;;;;;1.08;0.70;;;17.10;60.90;;;;;;6144730;23;20156;-83
2023/12/30 09:00:08;;;;;;;0.63;0.45;;;17.10;60.60;;;;;;6168903;23;20205;-82
2023/12/30 09:02:46;;;;;;;0.73;0.60;;;17.10;60.60;;;;;;6168142;23;20618;-83
2023/12/30 09:05:18;;;;;;;1.77;0.70;;;17.30;60.70;;;;;;6144915;23;20236;-83
2023/12/30 09:07:48;;;;;;;0.80;0.40;;;17.30;60.50;;;;;;6118451;23;20237;-82
2023/12/30 09:10:18;;;;;;;0.63;0.63;;;17.30;60.60;;;;;;6168829;23;20150;-83
2023/12/30 09:12:48;;;;;;;0.65;0.60;;;17.40;60.20;;;;;;6141675;23;20150;-83
2023/12/30 09:15:17;;;;;;;2.17;0.60;;;17.40;60.30;;;;;;6141845;23;20294;-83
2023/12/30 09:17:46;;;;;;;1.00;0.75;;;17.40;60.70;;;;;;6117506;23;20160;-84
2023/12/30 09:20:15;;;;;;;0.95;0.60;;;17.30;60.50;;;;;;6119477;23;20629;-83
2023/12/30 09:22:47;;;;;;;1.65;0.75;;;17.30;61.00;;;;;;6145529;23;20483;-83
2023/12/30 09:25:13;;;;;;;2.25;0.50;;;17.30;60.00;;;;;;6141953;23;20202;-84
2023/12/30 09:27:41;;;;;;;0.98;0.63;;;17.30;61.10;;;;;;6192953;23;20134;-84
2023/12/30 09:30:12;;;;;;;0.73;0.68;;;17.30;60.50;;;;;;6098625;23;20154;-84
2023/12/30 09:32:41;;;;;;;1.27;0.60;;;17.30;60.50;;;;;;6143984;23;20462;-84
2023/12/30 09:35:10;;;;;;;0.80;0.60;;;17.40;59.90;;;;;;6119492;23;20596;-81
2023/12/30 09:37:38;;;;;;;0.88;0.55;;;17.40;59.70;;;;;;6120899;23;20456;-85
2023/12/30 09:40:08;;;;;;;0.60;0.60;;;17.40;60.00;;;;;;6121178;23;20193;-83
2023/12/30 09:42:37;;;;;;;2.40;0.80;;;17.40;60.20;;;;;;6141961;23;20253;-86
2023/12/30 09:45:04;;;;;;;0.90;0.70;;;17.40;60.40;;;;;;6117587;23;20208;-84
2023/12/30 09:47:32;;;;;;;0.75;0.60;;;17.40;60.40;;;;;;6168234;23;20130;-87
2023/12/30 09:50:00;;;;;;;1.58;0.80;;;17.50;60.70;;;;;;6118862;23;20154;-85
2023/12/30 09:52:28;;;;;;;1.38;0.60;;;17.40;60.30;;;;;;6142364;23;20166;-86
2023/12/30 09:54:56;;;;;;;4.25;0.90;;;17.40;60.70;;;;;;6117351;23;20479;-83
2023/12/30 09:57:24;;;;;;;3.65;0.98;;;17.50;60.60;;;;;;6116304;23;20477;-84
2023/12/30 09:59:51;;;;;;;5.75;0.93;;;17.50;60.80;;;;;;6140942;23;20190;-84
2023/12/30 10:02:21;;;;;;;3.47;0.70;;;17.50;60.50;;;;;;6144956;23;20149;-86
2023/12/30 10:04:50;;;;;;;4.07;0.90;;;17.50;60.70;;;;;;6146105;23;20196;-85
2023/12/30 10:07:17;;;;;;;5.10;0.88;;;17.60;60.30;;;;;;6121306;23;20260;-84
2023/12/30 10:09:46;;;;;;;3.10;0.70;;;17.60;60.90;;;;;;6167314;23;20158;-84
2023/12/30 10:12:14;;;;;;;5.03;1.13;;;17.60;62.10;;;;;;6122214;23;20158;-85
2023/12/30 10:14:43;;;;;;;4.35;1.05;;;17.60;62.00;;;;;;6118588;23;20156;-86
2023/12/30 10:17:16;;;;;;;6.57;1.20;;;17.70;62.30;;;;;;6195327;23;20138;-86
2023/12/30 10:19:42;;;;;;;3.60;0.93;;;17.70;61.70;;;;;;6145561;23;20209;-85
2023/12/30 10:22:09;;;;;;;7.22;0.93;;;17.80;62.20;;;;;;6172848;23;20169;-83
2023/12/30 10:24:35;;;;;;;7.32;0.90;;;17.80;62.10;;;;;;6170680;23;20193;-88
2023/12/30 10:27:04;;;;;;;8.65;1.17;;;17.80;61.70;;;;;;6171467;23;20597;-85
2023/12/30 10:29:31;;;;;;;4.32;1.05;;;17.80;61.70;;;;;;6169245;23;20200;-85
2023/12/30 10:32:00;;;;;;;4.13;1.00;;;17.80;61.60;;;;;;6148938;23;20166;-85
2023/12/30 10:34:26;;;;;;;8.93;1.42;;;17.80;60.90;;;;;;6171876;23;20196;-84
2023/12/30 10:36:53;;;;;;;20.98;2.20;;;17.70;59.90;;;;;;6174238;23;20141;-83
2023/12/30 10:39:24;;;;;;;19.17;2.33;;;17.80;61.00;;;;;;6170898;23;20281;-83
2023/12/30 10:41:52;;;;;;;24.30;2.05;;;17.80;60.70;;;;;;6145631;23;20220;-83
2023/12/30 10:44:22;;;;;;;13.55;1.77;;;17.90;59.60;;;;;;6062305;23;20148;-83
2023/12/30 10:46:49;;;;;;;13.15;1.70;;;17.90;60.20;;;;;;6136828;23;20151;-85
2023/12/30 10:49:16;;;;;;;8.52;1.30;;;17.90;60.90;;;;;;6131320;23;20534;-85
2023/12/30 10:51:42;;;;;;;13.55;1.98;;;17.80;60.70;;;;;;6106269;23;20132;-86
2023/12/30 10:54:11;;;;;;;13.65;1.48;;;17.90;60.60;;;;;;6155549;23;20142;-84
2023/12/30 10:56:40;;;;;;;12.80;2.10;;;17.90;60.70;;;;;;6106236;23;20151;-84
2023/12/30 10:59:07;;;;;;;6.00;1.58;;;17.90;60.40;;;;;;6106256;23;20273;-82
2023/12/30 11:01:36;;;;;;;15.80;1.30;;;17.90;60.60;;;;;;6130757;23;20545;-84
2023/12/30 11:04:02;;;;;;;10.82;1.55;;;18.00;61.20;;;;;;6107104;23;20174;-83
2023/12/30 11:06:36;;;;;;;6.40;1.27;;;17.90;60.30;;;;;;6107617;23;20143;-86
2023/12/30 11:09:09;;;;;;;12.68;1.60;;;18.00;61.30;;;;;;6108686;23;20553;-85
2023/12/30 11:11:47;;;;;;;8.77;1.50;;;18.00;61.60;;;;;;6107190;23;20507;-86
2023/12/30 11:14:17;;;;;;;10.18;1.63;;;17.90;60.80;;;;;;6112270;23;20140;-84
2023/12/30 11:16:43;;;;;;;7.85;1.40;;;17.90;60.70;;;;;;6112915;23;20192;-88
2023/12/30 11:19:45;;;;;;;4.30;1.42;;;18.00;59.60;;;;;;6140933;23;20171;-84
2023/12/30 11:22:22;;;;;;;7.78;1.38;;;17.90;59.10;;;;;;6164990;23;20461;-85
2023/12/30 11:24:52;;;;;;;4.72;1.13;;;18.00;59.60;;;;;;6195188;23;20197;-82
2023/12/30 11:27:17;;;;;;;6.72;1.27;;;18.00;59.30;;;;;;6120231;23;20161;-84
2023/12/30 11:29:43;;;;;;;3.72;1.25;;;17.90;59.90;;;;;;6169346;23;20229;-85
2023/12/30 11:32:12;;;;;;;9.63;1.30;;;18.00;59.50;;;;;;6170718;23;20253;-84
2023/12/30 11:34:37;;;;;;;4.95;1.30;;;18.00;60.00;;;;;;6197339;23;20130;-83
2023/12/30 11:37:04;;;;;;;3.95;1.30;;;18.10;60.50;;;;;;6199518;23;20166;-83
2023/12/30 11:39:31;;;;;;;5.25;1.17;;;18.10;60.30;;;;;;6170904;23;20190;-83
2023/12/30 11:41:59;;;;;;;13.15;1.30;;;18.00;60.50;;;;;;6222131;23;20205;-83
2023/12/30 11:44:25;;;;;;;9.15;1.27;;;18.00;60.80;;;;;;6196123;23;20131;-84
2023/12/30 11:46:53;;;;;;;7.15;1.35;;;18.00;60.30;;;;;;6220775;23;20217;-83
2023/12/30 11:49:23;;;;;;;7.30;1.30;;;18.00;60.30;;;;;;6170613;23;20166;-87
2023/12/30 11:51:49;;;;;;;3.90;1.20;;;18.00;59.80;;;;;;6142613;23;20180;-83
2023/12/30 11:54:15;;;;;;;5.95;1.20;;;18.00;58.90;;;;;;6168739;23;20134;-85
2023/12/30 11:56:51;;;;;;;10.02;2.03;;;18.00;59.90;;;;;;6168310;23;20200;-85
2023/12/30 11:59:17;;;;;;;7.78;1.42;;;18.00;60.00;;;;;;6126152;23;20201;-83
2023/12/30 12:01:45;;;;;;;4.22;1.58;;;18.00;58.70;;;;;;6170578;23;20151;-82
2023/12/30 12:04:13;;;;;;;6.28;1.33;;;18.10;59.00;;;;;;6220643;23;20150;-84
2023/12/30 12:06:51;;;;;;;5.45;1.40;;;18.00;59.90;;;;;;6143973;23;20173;-82
2023/12/30 12:09:18;;;;;;;10.20;1.60;;;18.00;59.40;;;;;;6144804;23;20157;-87
2023/12/30 12:11:46;;;;;;;15.10;1.90;;;17.90;59.70;;;;;;6147166;23;20161;-85
2023/12/30 12:14:15;;;;;;;10.23;1.98;;;17.90;61.00;;;;;;6122892;23;20154;-86
2023/12/30 12:16:43;;;;;;;8.38;1.40;;;17.90;61.00;;;;;;6120639;23;20160;-83
2023/12/30 12:19:09;;;;;;;11.13;1.83;;;17.90;59.80;;;;;;6167998;23;20193;-81
2023/12/30 12:21:36;;;;;;;8.68;1.70;;;17.90;60.90;;;;;;6192688;23;20139;-82
2023/12/30 12:24:03;;;;;;;4.45;1.30;;;17.90;60.80;;;;;;6116901;23;20601;-83
2023/12/30 12:26:30;;;;;;;5.18;1.20;;;18.00;59.70;;;;;;6192150;23;20181;-83
2023/12/30 12:29:03;;;;;;;9.25;1.75;;;18.00;59.40;;;;;;6167287;23;20152;-82
2023/12/30 12:31:38;;;;;;;6.20;1.23;;;18.00;60.00;;;;;;6094145;23;20212;-83
2023/12/30 12:34:23;;;;;;;7.35;1.30;;;18.00;59.20;;;;;;6142147;23;20160;-82
2023/12/30 12:36:54;;;;;;;8.48;1.52;;;18.00;59.50;;;;;;6166687;23;20477;-82
2023/12/30 12:39:25;;;;;;;4.15;1.17;;;18.00;59.70;;;;;;6116662;23;20189;-82
2023/12/30 12:41:51;;;;;;;3.33;1.25;;;18.00;59.40;;;;;;6142102;23;20637;-87
2023/12/30 12:44:20;;;;;;;4.68;1.20;;;18.00;60.00;;;;;;6144006;23;20184;-83
2023/12/30 12:46:49;;;;;;;9.93;1.45;;;18.00;61.00;;;;;;6118082;23;20645;-83
2023/12/30 12:51:44;;;;;;;7.13;1.42;;;18.00;61.00;;;;;;6216453;23;20202;-83
2023/12/30 12:54:16;;;;;;;5.85;1.42;;;18.00;61.00;;;;;;6098928;23;20146;-81
2023/12/30 12:56:42;;;;;;;5.60;1.25;;;17.90;61.50;;;;;;6121888;23;20696;-82
2023/12/30 12:59:13;;;;;;;5.90;1.35;;;17.90;60.50;;;;;;6184828;23;20170;-82
2023/12/30 13:01:45;;;;;;;5.68;1.67;;;17.90;59.20;;;;;;6135111;23;20158;-83
2023/12/30 13:04:16;;;;;;;5.13;1.35;;;17.90;62.30;;;;;;6160225;23;20530;-83